sensor_id;sensor_type;location;lat;lon;timestamp;pressure;altitude;pressure_sealevel;temperature;humidity
49044;BME280;34860;48.066;14.124;2024-01-11T00:01:49;97519.38;;;-6.25;72.32
49044;BME280;34860;48.066;14.124;2024-01-11T00:04:40;97538.47;;;-6.07;72.02
49044;BME280;34860;48.066;14.124;2024-01-11T00:07:33;97539.66;;;-5.91;71.63
49044;BME280;34860;48.066;14.124;2024-01-11T00:10:23;97535.28;;;-5.78;71.17
49044;BME280;34860;48.066;14.124;2024-01-11T00:13:15;97528.63;;;-5.72;70.79
49044;BME280;34860;48.066;14.124;2024-01-11T00:16:05;97532.81;;;-5.66;70.53
49044;BME280;34860;48.066;14.124;2024-01-11T00:19:00;97527.56;;;-5.62;70.34
49044;BME280;34860;48.066;14.124;2024-01-11T00:21:51;97534.28;;;-5.59;70.14
49044;BME280;34860;48.066;14.124;2024-01-11T00:24:47;97531.75;;;-5.56;70.03
49044;BME280;34860;48.066;14.124;2024-01-11T00:27:36;97529.03;;;-5.56;70.02
49044;BME280;34860;48.066;14.124;2024-01-11T00:30:29;97528.41;;;-5.61;70.26
49044;BME280;34860;48.066;14.124;2024-01-11T00:33:19;97527.03;;;-5.73;70.65
49044;BME280;34860;48.066;14.124;2024-01-11T00:36:11;97527.03;;;-6.04;71.41
49044;BME280;34860;48.066;14.124;2024-01-11T00:39:11;97526.28;;;-6.18;71.83
49044;BME280;34860;48.066;14.124;2024-01-11T00:42:02;97523.44;;;-6.13;72.16
49044;BME280;34860;48.066;14.124;2024-01-11T00:44:56;97539.25;;;-6.07;72.07
49044;BME280;34860;48.066;14.124;2024-01-11T00:47:46;97530.25;;;-6.16;72.21
49044;BME280;34860;48.066;14.124;2024-01-11T00:50:37;97532.28;;;-6.22;72.44
49044;BME280;34860;48.066;14.124;2024-01-11T00:53:26;97531.13;;;-6.29;72.64
49044;BME280;34860;48.066;14.124;2024-01-11T00:56:21;97539.53;;;-6.31;72.71
49044;BME280;34860;48.066;14.124;2024-01-11T00:59:19;97534.59;;;-6.29;72.93
49044;BME280;34860;48.066;14.124;2024-01-11T01:02:09;97538.75;;;-6.09;72.35
49044;BME280;34860;48.066;14.124;2024-01-11T01:05:05;97533.75;;;-5.93;71.97
49044;BME280;34860;48.066;14.124;2024-01-11T01:08:00;97539.28;;;-5.75;71.31
49044;BME280;34860;48.066;14.124;2024-01-11T01:10:50;97544.44;;;-5.65;70.94
49044;BME280;34860;48.066;14.124;2024-01-11T01:13:42;97536.53;;;-5.61;70.62
49044;BME280;34860;48.066;14.124;2024-01-11T01:16:33;97535.91;;;-5.58;70.48
49044;BME280;34860;48.066;14.124;2024-01-11T01:19:23;97546.91;;;-5.55;70.42
49044;BME280;34860;48.066;14.124;2024-01-11T01:22:13;97543.06;;;-5.54;70.19
49044;BME280;34860;48.066;14.124;2024-01-11T01:25:04;97540.06;;;-5.52;70.11
49044;BME280;34860;48.066;14.124;2024-01-11T01:27:53;97546.28;;;-5.52;70.13
49044;BME280;34860;48.066;14.124;2024-01-11T01:30:43;97543.69;;;-5.57;69.93
49044;BME280;34860;48.066;14.124;2024-01-11T01:33:37;97544.22;;;-5.77;70.80
49044;BME280;34860;48.066;14.124;2024-01-11T01:36:34;97547.63;;;-5.86;71.05
49044;BME280;34860;48.066;14.124;2024-01-11T01:39:26;97552.66;;;-6.02;71.88
49044;BME280;34860;48.066;14.124;2024-01-11T01:42:16;97554.00;;;-6.13;72.00
49044;BME280;34860;48.066;14.124;2024-01-11T01:45:07;97555.16;;;-6.28;72.43
49044;BME280;34860;48.066;14.124;2024-01-11T01:48:00;97555.28;;;-6.47;72.78
49044;BME280;34860;48.066;14.124;2024-01-11T01:50:51;97545.19;;;-6.55;73.20
49044;BME280;34860;48.066;14.124;2024-01-11T01:53:41;97546.59;;;-6.58;73.27
49044;BME280;34860;48.066;14.124;2024-01-11T01:56:34;97545.69;;;-6.53;73.20
49044;BME280;34860;48.066;14.124;2024-01-11T01:59:27;97546.22;;;-6.65;73.14
49044;BME280;34860;48.066;14.124;2024-01-11T02:02:22;97546.94;;;-6.73;73.42
49044;BME280;34860;48.066;14.124;2024-01-11T02:05:16;97550.72;;;-6.74;73.66
49044;BME280;34860;48.066;14.124;2024-01-11T02:08:08;97546.72;;;-6.77;73.51
49044;BME280;34860;48.066;14.124;2024-01-11T02:11:04;97540.53;;;-6.77;73.54
49044;BME280;34860;48.066;14.124;2024-01-11T02:13:55;97526.28;;;-6.69;73.07
49044;BME280;34860;48.066;14.124;2024-01-11T02:16:45;97529.47;;;-6.53;72.80
49044;BME280;34860;48.066;14.124;2024-01-11T02:19:38;97534.84;;;-6.39;72.69
49044;BME280;34860;48.066;14.124;2024-01-11T02:22:32;97529.09;;;-6.24;72.02
49044;BME280;34860;48.066;14.124;2024-01-11T02:25:27;97539.19;;;-6.15;71.75
49044;BME280;34860;48.066;14.124;2024-01-11T02:28:17;97538.94;;;-6.05;71.53
49044;BME280;34860;48.066;14.124;2024-01-11T02:31:10;97533.41;;;-6.00;71.35
49044;BME280;34860;48.066;14.124;2024-01-11T02:34:03;97539.97;;;-5.92;71.11
49044;BME280;34860;48.066;14.124;2024-01-11T02:36:53;97535.53;;;-5.88;70.96
49044;BME280;34860;48.066;14.124;2024-01-11T02:39:43;97543.84;;;-5.85;70.95
49044;BME280;34860;48.066;14.124;2024-01-11T02:42:34;97539.72;;;-5.82;70.67
49044;BME280;34860;48.066;14.124;2024-01-11T02:45:24;97537.47;;;-5.89;71.04
49044;BME280;34860;48.066;14.124;2024-01-11T02:48:15;97533.28;;;-5.95;71.18
49044;BME280;34860;48.066;14.124;2024-01-11T02:51:04;97536.84;;;-6.08;71.58
49044;BME280;34860;48.066;14.124;2024-01-11T02:53:58;97536.06;;;-6.09;71.83
49044;BME280;34860;48.066;14.124;2024-01-11T02:56:47;97532.13;;;-6.03;71.47
49044;BME280;34860;48.066;14.124;2024-01-11T02:59:39;97532.75;;;-6.06;71.40
49044;BME280;34860;48.066;14.124;2024-01-11T03:02:29;97530.34;;;-6.07;71.33
49044;BME280;34860;48.066;14.124;2024-01-11T03:05:19;97524.06;;;-6.16;71.49
49044;BME280;34860;48.066;14.124;2024-01-11T03:08:11;97521.59;;;-6.27;71.85
49044;BME280;34860;48.066;14.124;2024-01-11T03:11:02;97522.50;;;-6.31;72.13
49044;BME280;34860;48.066;14.124;2024-01-11T03:13:55;97519.19;;;-6.28;71.97
49044;BME280;34860;48.066;14.124;2024-01-11T03:16:46;97515.28;;;-6.22;71.73
49044;BME280;34860;48.066;14.124;2024-01-11T03:19:39;97500.00;;;-6.18;71.32
49044;BME280;34860;48.066;14.124;2024-01-11T03:22:29;97498.91;;;-6.17;71.20
49044;BME280;34860;48.066;14.124;2024-01-11T03:25:18;97498.91;;;-6.17;70.91
49044;BME280;34860;48.066;14.124;2024-01-11T03:28:11;97497.63;;;-6.19;70.75
49044;BME280;34860;48.066;14.124;2024-01-11T03:31:03;97481.69;;;-6.21;70.60
49044;BME280;34860;48.066;14.124;2024-01-11T03:33:54;97478.00;;;-6.25;70.53
49044;BME280;34860;48.066;14.124;2024-01-11T03:36:46;97488.00;;;-6.26;70.52
49044;BME280;34860;48.066;14.124;2024-01-11T03:39:35;97483.22;;;-6.29;70.42
49044;BME280;34860;48.066;14.124;2024-01-11T03:42:24;97489.75;;;-6.30;70.33
49044;BME280;34860;48.066;14.124;2024-01-11T03:45:18;97488.16;;;-6.31;70.29
49044;BME280;34860;48.066;14.124;2024-01-11T03:48:08;97484.34;;;-6.30;70.33
49044;BME280;34860;48.066;14.124;2024-01-11T03:50:59;97490.34;;;-6.33;70.35
49044;BME280;34860;48.066;14.124;2024-01-11T03:53:48;97482.84;;;-6.36;70.11
49044;BME280;34860;48.066;14.124;2024-01-11T03:56:40;97476.16;;;-6.39;70.16
49044;BME280;34860;48.066;14.124;2024-01-11T03:59:30;97473.75;;;-6.40;70.33
49044;BME280;34860;48.066;14.124;2024-01-11T04:02:19;97471.34;;;-6.42;70.14
49044;BME280;34860;48.066;14.124;2024-01-11T04:05:14;97470.56;;;-6.42;70.41
49044;BME280;34860;48.066;14.124;2024-01-11T04:08:06;97472.34;;;-6.37;70.31
49044;BME280;34860;48.066;14.124;2024-01-11T04:10:56;97469.63;;;-6.37;70.31
49044;BME280;34860;48.066;14.124;2024-01-11T04:13:46;97479.38;;;-6.36;70.27
49044;BME280;34860;48.066;14.124;2024-01-11T04:16:40;97473.97;;;-6.36;70.23
49044;BME280;34860;48.066;14.124;2024-01-11T04:19:31;97480.94;;;-6.35;70.22
49044;BME280;34860;48.066;14.124;2024-01-11T04:22:20;97488.75;;;-6.34;70.29
49044;BME280;34860;48.066;14.124;2024-01-11T04:25:12;97494.34;;;-6.30;70.17
49044;BME280;34860;48.066;14.124;2024-01-11T04:28:01;97489.63;;;-6.25;70.31
49044;BME280;34860;48.066;14.124;2024-01-11T04:30:52;97488.41;;;-6.18;70.21
49044;BME280;34860;48.066;14.124;2024-01-11T04:33:45;97491.72;;;-6.22;70.55
49044;BME280;34860;48.066;14.124;2024-01-11T04:36:37;97494.28;;;-6.16;70.66
49044;BME280;34860;48.066;14.124;2024-01-11T04:39:29;97487.97;;;-6.12;70.46
49044;BME280;34860;48.066;14.124;2024-01-11T04:42:19;97487.34;;;-6.31;71.08
49044;BME280;34860;48.066;14.124;2024-01-11T04:45:09;97483.94;;;-6.37;71.51
49044;BME280;34860;48.066;14.124;2024-01-11T04:47:59;97484.25;;;-6.39;71.74
49044;BME280;34860;48.066;14.124;2024-01-11T04:50:48;97486.91;;;-6.25;71.83
49044;BME280;34860;48.066;14.124;2024-01-11T04:53:38;97492.75;;;-6.09;71.47
49044;BME280;34860;48.066;14.124;2024-01-11T04:56:30;97496.03;;;-5.98;71.39
49044;BME280;34860;48.066;14.124;2024-01-11T04:59:21;97502.94;;;-5.83;70.74
49044;BME280;34860;48.066;14.124;2024-01-11T05:02:10;97490.56;;;-5.75;70.53
49044;BME280;34860;48.066;14.124;2024-01-11T05:04:59;97483.72;;;-5.73;70.44
49044;BME280;34860;48.066;14.124;2024-01-11T05:07:48;97504.13;;;-5.67;70.20
49044;BME280;34860;48.066;14.124;2024-01-11T05:10:40;97493.50;;;-5.63;70.01
49044;BME280;34860;48.066;14.124;2024-01-11T05:13:31;97495.28;;;-5.58;70.07
49044;BME280;34860;48.066;14.124;2024-01-11T05:16:27;97501.50;;;-5.58;69.79
49044;BME280;34860;48.066;14.124;2024-01-11T05:19:16;97504.97;;;-5.57;69.81
49044;BME280;34860;48.066;14.124;2024-01-11T05:22:05;97505.78;;;-5.57;69.78
49044;BME280;34860;48.066;14.124;2024-01-11T05:24:53;97509.44;;;-5.61;69.53
49044;BME280;34860;48.066;14.124;2024-01-11T05:27:42;97513.06;;;-5.66;69.73
49044;BME280;34860;48.066;14.124;2024-01-11T05:30:31;97511.91;;;-5.74;69.76
49044;BME280;34860;48.066;14.124;2024-01-11T05:33:21;97513.00;;;-5.75;69.81
49044;BME280;34860;48.066;14.124;2024-01-11T05:36:15;97515.53;;;-5.78;69.83
49044;BME280;34860;48.066;14.124;2024-01-11T05:39:04;97514.84;;;-5.84;69.85
49044;BME280;34860;48.066;14.124;2024-01-11T05:41:53;97519.00;;;-5.87;69.76
49044;BME280;34860;48.066;14.124;2024-01-11T05:44:46;97521.69;;;-5.87;69.81
49044;BME280;34860;48.066;14.124;2024-01-11T05:47:37;97515.47;;;-5.87;69.74
49044;BME280;34860;48.066;14.124;2024-01-11T05:50:29;97517.22;;;-5.91;69.75
49044;BME280;34860;48.066;14.124;2024-01-11T05:53:18;97515.75;;;-5.97;69.78
49044;BME280;34860;48.066;14.124;2024-01-11T05:56:08;97516.84;;;-5.98;69.81
49044;BME280;34860;48.066;14.124;2024-01-11T05:59:00;97516.38;;;-6.00;69.87
49044;BME280;34860;48.066;14.124;2024-01-11T06:01:48;97510.47;;;-6.03;69.70
49044;BME280;34860;48.066;14.124;2024-01-11T06:04:37;97529.25;;;-6.06;69.88
49044;BME280;34860;48.066;14.124;2024-01-11T06:07:28;97542.47;;;-6.05;69.88
49044;BME280;34860;48.066;14.124;2024-01-11T06:10:17;97537.38;;;-6.06;69.71
49044;BME280;34860;48.066;14.124;2024-01-11T06:13:05;97534.34;;;-6.05;69.67
49044;BME280;34860;48.066;14.124;2024-01-11T06:15:54;97530.66;;;-6.09;69.69
49044;BME280;34860;48.066;14.124;2024-01-11T06:18:43;97523.75;;;-6.15;69.73
49044;BME280;34860;48.066;14.124;2024-01-11T06:21:32;97532.03;;;-6.11;69.87
49044;BME280;34860;48.066;14.124;2024-01-11T06:24:22;97546.09;;;-6.09;69.67
49044;BME280;34860;48.066;14.124;2024-01-11T06:27:11;97546.41;;;-6.11;69.83
49044;BME280;34860;48.066;14.124;2024-01-11T06:30:01;97545.28;;;-6.10;69.74
49044;BME280;34860;48.066;14.124;2024-01-11T06:32:49;97544.66;;;-6.07;69.61
49044;BME280;34860;48.066;14.124;2024-01-11T06:35:38;97557.41;;;-6.07;69.62
49044;BME280;34860;48.066;14.124;2024-01-11T06:38:31;97572.03;;;-6.08;69.63
49044;BME280;34860;48.066;14.124;2024-01-11T06:41:21;97575.84;;;-6.09;69.55
49044;BME280;34860;48.066;14.124;2024-01-11T06:44:15;97578.66;;;-6.14;69.62
49044;BME280;34860;48.066;14.124;2024-01-11T06:47:07;97581.47;;;-6.19;69.71
49044;BME280;34860;48.066;14.124;2024-01-11T06:49:56;97582.59;;;-6.21;69.65
49044;BME280;34860;48.066;14.124;2024-01-11T06:52:45;97572.28;;;-6.32;69.63
49044;BME280;34860;48.066;14.124;2024-01-11T06:55:35;97574.53;;;-6.48;69.82
49044;BME280;34860;48.066;14.124;2024-01-11T06:58:25;97571.53;;;-6.61;69.97
49044;BME280;34860;48.066;14.124;2024-01-11T07:01:17;97564.25;;;-6.74;69.92
49044;BME280;34860;48.066;14.124;2024-01-11T07:04:08;97564.25;;;-6.88;69.93
49044;BME280;34860;48.066;14.124;2024-01-11T07:06:57;97561.75;;;-6.98;69.98
49044;BME280;34860;48.066;14.124;2024-01-11T07:09:45;97570.97;;;-6.99;70.06
49044;BME280;34860;48.066;14.124;2024-01-11T07:12:34;97575.38;;;-7.03;70.00
49044;BME280;34860;48.066;14.124;2024-01-11T07:15:26;97573.28;;;-7.06;70.15
49044;BME280;34860;48.066;14.124;2024-01-11T07:18:16;97563.94;;;-7.14;70.08
49044;BME280;34860;48.066;14.124;2024-01-11T07:21:05;97562.94;;;-7.18;70.05
49044;BME280;34860;48.066;14.124;2024-01-11T07:23:56;97563.25;;;-7.20;70.03
49044;BME280;34860;48.066;14.124;2024-01-11T07:26:46;97564.56;;;-7.17;70.00
49044;BME280;34860;48.066;14.124;2024-01-11T07:29:40;97558.06;;;-7.16;69.97
49044;BME280;34860;48.066;14.124;2024-01-11T07:32:30;97557.47;;;-7.13;70.08
49044;BME280;34860;48.066;14.124;2024-01-11T07:35:20;97570.03;;;-7.08;69.99
49044;BME280;34860;48.066;14.124;2024-01-11T07:38:11;97578.06;;;-7.03;69.90
49044;BME280;34860;48.066;14.124;2024-01-11T07:41:00;97566.38;;;-6.99;69.85
49044;BME280;34860;48.066;14.124;2024-01-11T07:43:49;97570.25;;;-6.91;69.61
49044;BME280;34860;48.066;14.124;2024-01-11T07:46:40;97582.88;;;-6.86;69.72
49044;BME280;34860;48.066;14.124;2024-01-11T07:49:36;97589.88;;;-6.85;69.80
49044;BME280;34860;48.066;14.124;2024-01-11T07:52:27;97588.50;;;-6.83;69.55
49044;BME280;34860;48.066;14.124;2024-01-11T07:55:17;97580.16;;;-6.86;69.79
49044;BME280;34860;48.066;14.124;2024-01-11T07:58:06;97577.16;;;-6.85;69.68
49044;BME280;34860;48.066;14.124;2024-01-11T08:00:55;97578.19;;;-6.81;69.77
49044;BME280;34860;48.066;14.124;2024-01-11T08:03:44;97571.34;;;-6.78;69.61
49044;BME280;34860;48.066;14.124;2024-01-11T08:06:34;97581.84;;;-6.77;69.75
49044;BME280;34860;48.066;14.124;2024-01-11T08:09:24;97595.06;;;-6.75;69.62
49044;BME280;34860;48.066;14.124;2024-01-11T08:12:14;97600.59;;;-6.66;69.67
49044;BME280;34860;48.066;14.124;2024-01-11T08:15:03;97595.06;;;-6.61;69.52
49044;BME280;34860;48.066;14.124;2024-01-11T08:17:54;97593.16;;;-6.61;69.47
49044;BME280;34860;48.066;14.124;2024-01-11T08:20:42;97603.69;;;-6.59;69.67
49044;BME280;34860;48.066;14.124;2024-01-11T08:23:39;97610.09;;;-6.55;69.52
49044;BME280;34860;48.066;14.124;2024-01-11T08:26:31;97621.59;;;-6.49;69.62
49044;BME280;34860;48.066;14.124;2024-01-11T08:29:23;97620.09;;;-6.42;69.40
49044;BME280;34860;48.066;14.124;2024-01-11T08:32:12;97616.00;;;-6.39;69.27
49044;BME280;34860;48.066;14.124;2024-01-11T08:35:01;97615.38;;;-6.36;69.45
49044;BME280;34860;48.066;14.124;2024-01-11T08:37:51;97622.59;;;-6.31;69.23
49044;BME280;34860;48.066;14.124;2024-01-11T08:40:43;97621.97;;;-6.28;69.39
49044;BME280;34860;48.066;14.124;2024-01-11T08:43:32;97624.38;;;-6.27;69.38
49044;BME280;34860;48.066;14.124;2024-01-11T08:46:25;97633.66;;;-6.19;69.38
49044;BME280;34860;48.066;14.124;2024-01-11T08:49:18;97641.59;;;-6.09;69.20
49044;BME280;34860;48.066;14.124;2024-01-11T08:52:07;97627.75;;;-6.07;69.21
49044;BME280;34860;48.066;14.124;2024-01-11T08:54:57;97638.22;;;-5.92;69.25
49044;BME280;34860;48.066;14.124;2024-01-11T08:57:48;97638.41;;;-5.88;69.31
49044;BME280;34860;48.066;14.124;2024-01-11T09:00:37;97629.09;;;-5.96;69.79
49044;BME280;34860;48.066;14.124;2024-01-11T09:03:25;97636.19;;;-5.86;70.03
49044;BME280;34860;48.066;14.124;2024-01-11T09:06:16;97650.00;;;-5.88;70.55
49044;BME280;34860;48.066;14.124;2024-01-11T09:09:05;97653.75;;;-5.61;70.21
49044;BME280;34860;48.066;14.124;2024-01-11T09:12:01;97645.56;;;-5.47;69.63
49044;BME280;34860;48.066;14.124;2024-01-11T09:14:51;97638.13;;;-5.41;69.53
49044;BME280;34860;48.066;14.124;2024-01-11T09:17:40;97649.13;;;-5.38;69.25
49044;BME280;34860;48.066;14.124;2024-01-11T09:20:28;97642.47;;;-5.32;69.28
49044;BME280;34860;48.066;14.124;2024-01-11T09:23:17;97651.16;;;-5.21;69.14
49044;BME280;34860;48.066;14.124;2024-01-11T09:26:06;97646.13;;;-5.14;68.92
49044;BME280;34860;48.066;14.124;2024-01-11T09:28:55;97633.38;;;-5.04;68.84
49044;BME280;34860;48.066;14.124;2024-01-11T09:31:45;97621.97;;;-4.93;68.76
49044;BME280;34860;48.066;14.124;2024-01-11T09:34:33;97617.03;;;-5.22;69.40
49044;BME280;34860;48.066;14.124;2024-01-11T09:37:23;97625.41;;;-5.09;70.02
49044;BME280;34860;48.066;14.124;2024-01-11T09:40:11;97629.28;;;-4.93;69.50
49044;BME280;34860;48.066;14.124;2024-01-11T09:43:03;97622.31;;;-4.85;68.95
49044;BME280;34860;48.066;14.124;2024-01-11T09:45:53;97612.38;;;-4.67;68.96
49044;BME280;34860;48.066;14.124;2024-01-11T09:48:50;97614.47;;;-4.56;68.57
49044;BME280;34860;48.066;14.124;2024-01-11T09:51:42;97616.03;;;-4.63;68.74
49044;BME280;34860;48.066;14.124;2024-01-11T09:54:32;97609.88;;;-5.18;70.16
49044;BME280;34860;48.066;14.124;2024-01-11T09:57:24;97595.97;;;-5.25;71.01
49044;BME280;34860;48.066;14.124;2024-01-11T10:00:17;97574.75;;;-5.32;71.75
49044;BME280;34860;48.066;14.124;2024-01-11T10:03:08;97578.94;;;-5.25;71.87
49044;BME280;34860;48.066;14.124;2024-01-11T10:06:02;97581.09;;;-5.36;72.10
49044;BME280;34860;48.066;14.124;2024-01-11T10:08:52;97585.78;;;-5.51;72.70
49044;BME280;34860;48.066;14.124;2024-01-11T10:11:42;97586.06;;;-5.61;73.11
49044;BME280;34860;48.066;14.124;2024-01-11T10:14:31;97583.66;;;-5.62;73.19
49044;BME280;34860;48.066;14.124;2024-01-11T10:17:26;97575.34;;;-5.66;73.21
49044;BME280;34860;48.066;14.124;2024-01-11T10:20:16;97561.81;;;-5.66;73.12
49044;BME280;34860;48.066;14.124;2024-01-11T10:23:12;97561.50;;;-5.64;73.06
49044;BME280;34860;48.066;14.124;2024-01-11T10:26:01;97566.00;;;-5.60;72.95
49044;BME280;34860;48.066;14.124;2024-01-11T10:28:52;97554.72;;;-5.53;73.06
49044;BME280;34860;48.066;14.124;2024-01-11T10:31:43;97547.44;;;-5.44;72.59
49044;BME280;34860;48.066;14.124;2024-01-11T10:34:33;97555.44;;;-5.39;72.53
49044;BME280;34860;48.066;14.124;2024-01-11T10:37:24;97552.97;;;-5.49;72.67
49044;BME280;34860;48.066;14.124;2024-01-11T10:40:18;97564.38;;;-5.61;73.05
49044;BME280;34860;48.066;14.124;2024-01-11T10:43:12;97555.47;;;-5.61;72.99
49044;BME280;34860;48.066;14.124;2024-01-11T10:46:04;97555.06;;;-5.46;72.75
49044;BME280;34860;48.066;14.124;2024-01-11T10:48:59;97555.13;;;-5.37;72.39
49044;BME280;34860;48.066;14.124;2024-01-11T10:51:53;97562.41;;;-5.47;72.40
49044;BME280;34860;48.066;14.124;2024-01-11T10:54:48;97563.59;;;-5.61;72.82
49044;BME280;34860;48.066;14.124;2024-01-11T10:57:39;97560.44;;;-5.55;72.58
49044;BME280;34860;48.066;14.124;2024-01-11T11:00:35;97550.88;;;-5.52;72.76
49044;BME280;34860;48.066;14.124;2024-01-11T11:03:23;97560.44;;;-5.55;72.54
49044;BME280;34860;48.066;14.124;2024-01-11T11:06:18;97567.75;;;-5.55;72.56
49044;BME280;34860;48.066;14.124;2024-01-11T11:09:08;97563.56;;;-5.39;72.61
49044;BME280;34860;48.066;14.124;2024-01-11T11:12:01;97563.25;;;-5.37;72.59
49044;BME280;34860;48.066;14.124;2024-01-11T11:14:53;97551.28;;;-5.36;72.14
49044;BME280;34860;48.066;14.124;2024-01-11T11:17:43;97543.44;;;-5.47;72.69
49044;BME280;34860;48.066;14.124;2024-01-11T11:20:33;97530.00;;;-5.29;72.48
49044;BME280;34860;48.066;14.124;2024-01-11T11:23:22;97534.72;;;-4.95;72.19
49044;BME280;34860;48.066;14.124;2024-01-11T11:26:14;97540.13;;;-5.03;71.92
49044;BME280;34860;48.066;14.124;2024-01-11T11:29:04;97540.53;;;-5.19;72.27
49044;BME280;34860;48.066;14.124;2024-01-11T11:31:55;97552.63;;;-5.25;72.24
49044;BME280;34860;48.066;14.124;2024-01-11T11:34:46;97551.38;;;-5.19;72.62
49044;BME280;34860;48.066;14.124;2024-01-11T11:37:44;97554.13;;;-5.10;72.40
49044;BME280;34860;48.066;14.124;2024-01-11T11:40:33;97552.38;;;-5.15;72.35
49044;BME280;34860;48.066;14.124;2024-01-11T11:43:27;97546.03;;;-5.01;72.35
49044;BME280;34860;48.066;14.124;2024-01-11T11:46:19;97551.66;;;-4.98;71.93
49044;BME280;34860;48.066;14.124;2024-01-11T11:49:13;97557.22;;;-4.94;71.83
49044;BME280;34860;48.066;14.124;2024-01-11T11:52:03;97557.69;;;-5.01;71.95
49044;BME280;34860;48.066;14.124;2024-01-11T11:54:53;97533.47;;;-4.97;72.12
49044;BME280;34860;48.066;14.124;2024-01-11T11:57:45;97511.94;;;-4.94;71.93
49044;BME280;34860;48.066;14.124;2024-01-11T12:00:34;97511.63;;;-4.92;72.16
49044;BME280;34860;48.066;14.124;2024-01-11T12:03:24;97507.84;;;-4.73;71.94
49044;BME280;34860;48.066;14.124;2024-01-11T12:06:28;97541.41;;;-4.34;71.61
49044;BME280;34860;48.066;14.124;2024-01-11T12:09:18;97564.59;;;-4.20;70.99
49044;BME280;34860;48.066;14.124;2024-01-11T12:12:10;97564.41;;;-4.32;71.46
49044;BME280;34860;48.066;14.124;2024-01-11T12:15:02;97545.72;;;-4.51;71.98
49044;BME280;34860;48.066;14.124;2024-01-11T12:17:57;97537.38;;;-4.63;72.25
49044;BME280;34860;48.066;14.124;2024-01-11T12:20:47;97553.50;;;-4.67;72.41
49044;BME280;34860;48.066;14.124;2024-01-11T12:23:43;97553.00;;;-4.69;72.45
49044;BME280;34860;48.066;14.124;2024-01-11T12:26:33;97527.47;;;-4.68;72.45
49044;BME280;34860;48.066;14.124;2024-01-11T12:29:23;97511.69;;;-4.66;72.29
49044;BME280;34860;48.066;14.124;2024-01-11T12:32:12;97517.59;;;-4.64;72.42
49044;BME280;34860;48.066;14.124;2024-01-11T12:35:06;97504.53;;;-4.44;72.28
49044;BME280;34860;48.066;14.124;2024-01-11T12:37:55;97506.59;;;-4.32;72.00
49044;BME280;34860;48.066;14.124;2024-01-11T12:40:47;97513.66;;;-4.23;71.91
49044;BME280;34860;48.066;14.124;2024-01-11T12:43:36;97508.69;;;-4.21;71.68
49044;BME280;34860;48.066;14.124;2024-01-11T12:46:25;97523.53;;;-4.27;71.96
49044;BME280;34860;48.066;14.124;2024-01-11T12:49:15;97526.41;;;-4.49;72.27
49044;BME280;34860;48.066;14.124;2024-01-11T12:52:05;97506.59;;;-4.59;72.43
49044;BME280;34860;48.066;14.124;2024-01-11T12:54:54;97505.63;;;-4.63;72.55
49044;BME280;34860;48.066;14.124;2024-01-11T12:57:45;97492.88;;;-4.53;72.28
49044;BME280;34860;48.066;14.124;2024-01-11T13:00:37;97483.78;;;-4.14;71.40
49044;BME280;34860;48.066;14.124;2024-01-11T13:03:27;97503.59;;;-4.05;70.88
49044;BME280;34860;48.066;14.124;2024-01-11T13:06:16;97498.81;;;-4.25;71.10
49044;BME280;34860;48.066;14.124;2024-01-11T13:09:06;97493.22;;;-4.38;71.67
49044;BME280;34860;48.066;14.124;2024-01-11T13:11:58;97504.53;;;-4.44;71.74
49044;BME280;34860;48.066;14.124;2024-01-11T13:14:48;97498.47;;;-4.41;71.97
49044;BME280;34860;48.066;14.124;2024-01-11T13:17:39;97491.91;;;-3.96;71.14
49044;BME280;34860;48.066;14.124;2024-01-11T13:20:28;97486.47;;;-3.79;70.90
49044;BME280;34860;48.066;14.124;2024-01-11T13:23:18;97481.59;;;-3.47;70.12
49044;BME280;34860;48.066;14.124;2024-01-11T13:26:13;97475.19;;;-2.74;68.49
49044;BME280;34860;48.066;14.124;2024-01-11T13:29:05;97481.38;;;-2.65;67.53
49044;BME280;34860;48.066;14.124;2024-01-11T13:32:00;97472.06;;;-3.23;68.47
49044;BME280;34860;48.066;14.124;2024-01-11T13:34:49;97472.91;;;-3.32;69.04
49044;BME280;34860;48.066;14.124;2024-01-11T13:37:44;97456.56;;;-3.70;69.86
49044;BME280;34860;48.066;14.124;2024-01-11T13:40:33;97469.53;;;-3.76;70.21
49044;BME280;34860;48.066;14.124;2024-01-11T13:43:22;97461.09;;;-3.92;70.43
49044;BME280;34860;48.066;14.124;2024-01-11T13:46:11;97459.84;;;-4.29;71.14
49044;BME280;34860;48.066;14.124;2024-01-11T13:49:05;97473.88;;;-4.53;72.16
49044;BME280;34860;48.066;14.124;2024-01-11T13:51:57;97493.31;;;-4.78;72.44
49044;BME280;34860;48.066;14.124;2024-01-11T13:54:47;97496.16;;;-4.92;72.73
49044;BME280;34860;48.066;14.124;2024-01-11T13:57:41;97503.78;;;-5.02;72.98
49044;BME280;34860;48.066;14.124;2024-01-11T14:00:30;97497.53;;;-5.12;73.03
49044;BME280;34860;48.066;14.124;2024-01-11T14:03:21;97523.00;;;-5.21;73.26
49044;BME280;34860;48.066;14.124;2024-01-11T14:06:12;97520.63;;;-5.23;73.13
49044;BME280;34860;48.066;14.124;2024-01-11T14:09:03;97531.06;;;-5.39;72.97
49044;BME280;34860;48.066;14.124;2024-01-11T14:11:57;97516.84;;;-5.44;72.96
49044;BME280;34860;48.066;14.124;2024-01-11T14:14:46;97518.38;;;-5.52;72.89
49044;BME280;34860;48.066;14.124;2024-01-11T14:17:35;97508.13;;;-5.64;73.09
49044;BME280;34860;48.066;14.124;2024-01-11T14:20:29;97506.66;;;-5.70;73.20
49044;BME280;34860;48.066;14.124;2024-01-11T14:23:20;97508.28;;;-5.69;73.04
49044;BME280;34860;48.066;14.124;2024-01-11T14:26:09;97517.31;;;-5.74;73.19
49044;BME280;34860;48.066;14.124;2024-01-11T14:28:58;97527.22;;;-5.69;72.91
49044;BME280;34860;48.066;14.124;2024-01-11T14:31:50;97533.25;;;-5.72;72.83
49044;BME280;34860;48.066;14.124;2024-01-11T14:34:39;97534.97;;;-5.76;72.83
49044;BME280;34860;48.066;14.124;2024-01-11T14:37:28;97531.47;;;-5.77;72.90
49044;BME280;34860;48.066;14.124;2024-01-11T14:40:18;97527.22;;;-5.69;72.52
49044;BME280;34860;48.066;14.124;2024-01-11T14:43:10;97517.25;;;-5.60;72.11
49044;BME280;34860;48.066;14.124;2024-01-11T14:45:59;97507.22;;;-5.59;72.20
49044;BME280;34860;48.066;14.124;2024-01-11T14:48:53;97509.06;;;-5.69;72.42
49044;BME280;34860;48.066;14.124;2024-01-11T14:51:42;97503.78;;;-5.74;72.66
49044;BME280;34860;48.066;14.124;2024-01-11T14:54:31;97498.38;;;-5.74;72.68